sensor_id;sensor_type;location;lat;lon;timestamp;P1;durP1;ratioP1;P2;durP2;ratioP2
44832;SDS011;30569;51.252;9.830;2024-01-30T00:02:19;13.20;;;6.47;;
44832;SDS011;30569;51.252;9.830;2024-01-30T00:04:44;9.77;;;5.77;;
44832;SDS011;30569;51.252;9.830;2024-01-30T00:07:10;10.23;;;5.90;;
44832;SDS011;30569;51.252;9.830;2024-01-30T00:09:35;11.60;;;5.87;;
44832;SDS011;30569;51.252;9.830;2024-01-30T00:12:01;9.20;;;5.30;;
44832;SDS011;30569;51.252;9.830;2024-01-30T00:14:27;9.77;;;4.90;;
44832;SDS011;30569;51.252;9.830;2024-01-30T00:16:52;8.50;;;5.67;;
44832;SDS011;30569;51.252;9.830;2024-01-30T00:19:18;9.43;;;5.43;;
44832;SDS011;30569;51.252;9.830;2024-01-30T00:21:43;11.10;;;5.37;;
44832;SDS011;30569;51.252;9.830;2024-01-30T00:24:09;8.27;;;4.80;;
44832;SDS011;30569;51.252;9.830;2024-01-30T00:26:34;9.13;;;4.90;;
44832;SDS011;30569;51.252;9.830;2024-01-30T00:29:00;7.03;;;4.90;;
44832;SDS011;30569;51.252;9.830;2024-01-30T00:31:26;10.27;;;5.10;;
44832;SDS011;30569;51.252;9.830;2024-01-30T00:33:51;8.67;;;5.20;;
44832;SDS011;30569;51.252;9.830;2024-01-30T00:36:17;8.60;;;5.83;;
44832;SDS011;30569;51.252;9.830;2024-01-30T00:38:42;8.80;;;5.00;;
44832;SDS011;30569;51.252;9.830;2024-01-30T00:41:08;13.10;;;5.40;;
44832;SDS011;30569;51.252;9.830;2024-01-30T00:43:34;10.30;;;5.43;;
44832;SDS011;30569;51.252;9.830;2024-01-30T00:46:00;9.30;;;5.20;;
44832;SDS011;30569;51.252;9.830;2024-01-30T00:48:26;9.37;;;5.50;;
44832;SDS011;30569;51.252;9.830;2024-01-30T00:50:52;8.83;;;5.27;;
44832;SDS011;30569;51.252;9.830;2024-01-30T00:53:17;11.47;;;5.53;;
44832;SDS011;30569;51.252;9.830;2024-01-30T00:55:43;10.07;;;5.37;;
44832;SDS011;30569;51.252;9.830;2024-01-30T00:58:09;12.67;;;6.47;;
44832;SDS011;30569;51.252;9.830;2024-01-30T01:00:34;12.67;;;5.67;;
44832;SDS011;30569;51.252;9.830;2024-01-30T01:03:00;12.73;;;6.40;;
44832;SDS011;30569;51.252;9.830;2024-01-30T01:05:26;11.20;;;6.33;;
44832;SDS011;30569;51.252;9.830;2024-01-30T01:07:52;12.23;;;6.20;;
44832;SDS011;30569;51.252;9.830;2024-01-30T01:10:17;10.77;;;6.00;;
44832;SDS011;30569;51.252;9.830;2024-01-30T01:12:43;10.53;;;5.90;;
44832;SDS011;30569;51.252;9.830;2024-01-30T01:15:10;12.80;;;6.57;;
44832;SDS011;30569;51.252;9.830;2024-01-30T01:17:36;10.13;;;6.20;;
44832;SDS011;30569;51.252;9.830;2024-01-30T01:20:05;11.43;;;6.10;;
44832;SDS011;30569;51.252;9.830;2024-01-30T01:22:31;10.53;;;5.67;;
44832;SDS011;30569;51.252;9.830;2024-01-30T01:24:58;10.23;;;5.83;;
44832;SDS011;30569;51.252;9.830;2024-01-30T01:27:24;11.07;;;6.10;;
44832;SDS011;30569;51.252;9.830;2024-01-30T01:29:50;11.57;;;5.73;;
44832;SDS011;30569;51.252;9.830;2024-01-30T01:32:16;9.90;;;5.27;;
44832;SDS011;30569;51.252;9.830;2024-01-30T01:34:41;14.27;;;5.80;;
44832;SDS011;30569;51.252;9.830;2024-01-30T01:37:07;11.47;;;5.20;;
44832;SDS011;30569;51.252;9.830;2024-01-30T01:39:32;11.27;;;5.63;;
44832;SDS011;30569;51.252;9.830;2024-01-30T01:41:58;10.63;;;5.70;;
44832;SDS011;30569;51.252;9.830;2024-01-30T01:44:24;10.90;;;5.20;;
44832;SDS011;30569;51.252;9.830;2024-01-30T01:46:49;9.70;;;5.57;;
44832;SDS011;30569;51.252;9.830;2024-01-30T01:49:17;11.27;;;5.67;;
44832;SDS011;30569;51.252;9.830;2024-01-30T01:51:44;12.90;;;5.70;;
44832;SDS011;30569;51.252;9.830;2024-01-30T01:54:12;8.93;;;5.13;;
44832;SDS011;30569;51.252;9.830;2024-01-30T01:56:39;10.30;;;5.70;;
44832;SDS011;30569;51.252;9.830;2024-01-30T01:59:06;11.83;;;5.20;;
44832;SDS011;30569;51.252;9.830;2024-01-30T02:01:33;12.80;;;5.70;;
44832;SDS011;30569;51.252;9.830;2024-01-30T02:03:59;9.40;;;5.67;;
44832;SDS011;30569;51.252;9.830;2024-01-30T02:06:26;12.00;;;6.17;;
44832;SDS011;30569;51.252;9.830;2024-01-30T02:08:52;13.70;;;6.27;;
44832;SDS011;30569;51.252;9.830;2024-01-30T02:11:18;15.73;;;6.67;;
44832;SDS011;30569;51.252;9.830;2024-01-30T02:13:44;10.80;;;6.50;;
44832;SDS011;30569;51.252;9.830;2024-01-30T02:16:10;11.83;;;6.23;;
44832;SDS011;30569;51.252;9.830;2024-01-30T02:18:35;10.63;;;6.30;;
44832;SDS011;30569;51.252;9.830;2024-01-30T02:21:06;11.40;;;5.87;;
44832;SDS011;30569;51.252;9.830;2024-01-30T02:23:32;12.93;;;6.30;;
44832;SDS011;30569;51.252;9.830;2024-01-30T02:25:59;12.23;;;6.10;;
44832;SDS011;30569;51.252;9.830;2024-01-30T02:28:25;10.43;;;5.90;;
44832;SDS011;30569;51.252;9.830;2024-01-30T02:30:51;10.90;;;5.83;;
44832;SDS011;30569;51.252;9.830;2024-01-30T02:33:16;10.63;;;5.70;;
44832;SDS011;30569;51.252;9.830;2024-01-30T02:35:42;10.90;;;5.67;;
44832;SDS011;30569;51.252;9.830;2024-01-30T02:38:08;10.70;;;6.00;;
44832;SDS011;30569;51.252;9.830;2024-01-30T02:40:33;10.70;;;6.07;;
44832;SDS011;30569;51.252;9.830;2024-01-30T02:42:59;9.93;;;6.00;;
44832;SDS011;30569;51.252;9.830;2024-01-30T02:45:26;10.90;;;5.97;;
44832;SDS011;30569;51.252;9.830;2024-01-30T02:47:52;9.07;;;5.80;;
44832;SDS011;30569;51.252;9.830;2024-01-30T02:50:18;9.23;;;5.50;;
44832;SDS011;30569;51.252;9.830;2024-01-30T02:52:43;10.20;;;5.20;;
44832;SDS011;30569;51.252;9.830;2024-01-30T02:55:09;12.40;;;5.87;;
44832;SDS011;30569;51.252;9.830;2024-01-30T02:57:35;9.67;;;5.77;;
44832;SDS011;30569;51.252;9.830;2024-01-30T03:00:01;10.57;;;6.00;;
44832;SDS011;30569;51.252;9.830;2024-01-30T03:02:28;9.53;;;5.77;;
44832;SDS011;30569;51.252;9.830;2024-01-30T03:04:53;10.73;;;5.43;;
44832;SDS011;30569;51.252;9.830;2024-01-30T03:07:19;9.43;;;5.27;;
44832;SDS011;30569;51.252;9.830;2024-01-30T03:09:44;11.43;;;5.53;;
44832;SDS011;30569;51.252;9.830;2024-01-30T03:12:10;12.03;;;5.43;;
44832;SDS011;30569;51.252;9.830;2024-01-30T03:14:35;11.43;;;4.93;;
44832;SDS011;30569;51.252;9.830;2024-01-30T03:17:01;9.47;;;5.33;;
44832;SDS011;30569;51.252;9.830;2024-01-30T03:19:27;10.70;;;5.43;;
44832;SDS011;30569;51.252;9.830;2024-01-30T03:21:53;12.57;;;6.00;;
44832;SDS011;30569;51.252;9.830;2024-01-30T03:24:18;11.03;;;5.60;;
44832;SDS011;30569;51.252;9.830;2024-01-30T03:26:44;9.33;;;5.70;;
44832;SDS011;30569;51.252;9.830;2024-01-30T03:29:10;9.17;;;5.33;;
44832;SDS011;30569;51.252;9.830;2024-01-30T03:31:35;8.77;;;5.07;;
44832;SDS011;30569;51.252;9.830;2024-01-30T03:34:01;12.37;;;6.40;;
44832;SDS011;30569;51.252;9.830;2024-01-30T03:36:27;18.57;;;9.30;;
44832;SDS011;30569;51.252;9.830;2024-01-30T03:38:53;18.73;;;9.53;;
44832;SDS011;30569;51.252;9.830;2024-01-30T03:41:19;18.23;;;9.73;;
44832;SDS011;30569;51.252;9.830;2024-01-30T03:43:44;19.13;;;9.67;;
44832;SDS011;30569;51.252;9.830;2024-01-30T03:46:13;19.13;;;10.40;;
44832;SDS011;30569;51.252;9.830;2024-01-30T03:48:39;18.53;;;9.80;;
44832;SDS011;30569;51.252;9.830;2024-01-30T03:51:05;17.53;;;8.50;;
44832;SDS011;30569;51.252;9.830;2024-01-30T03:53:30;11.30;;;6.60;;
44832;SDS011;30569;51.252;9.830;2024-01-30T03:55:56;9.67;;;6.27;;
44832;SDS011;30569;51.252;9.830;2024-01-30T03:58:21;10.60;;;6.70;;
44832;SDS011;30569;51.252;9.830;2024-01-30T04:00:47;12.80;;;6.40;;
44832;SDS011;30569;51.252;9.830;2024-01-30T04:03:14;11.63;;;6.03;;
44832;SDS011;30569;51.252;9.830;2024-01-30T04:05:40;10.73;;;6.37;;
44832;SDS011;30569;51.252;9.830;2024-01-30T04:08:06;10.77;;;6.40;;
44832;SDS011;30569;51.252;9.830;2024-01-30T04:10:32;10.20;;;5.60;;
44832;SDS011;30569;51.252;9.830;2024-01-30T04:12:58;8.90;;;5.13;;
44832;SDS011;30569;51.252;9.830;2024-01-30T04:15:24;8.67;;;5.30;;
44832;SDS011;30569;51.252;9.830;2024-01-30T04:17:50;8.97;;;5.03;;
44832;SDS011;30569;51.252;9.830;2024-01-30T04:20:15;11.53;;;5.07;;
44832;SDS011;30569;51.252;9.830;2024-01-30T04:22:42;8.67;;;5.40;;
44832;SDS011;30569;51.252;9.830;2024-01-30T04:25:09;11.43;;;5.43;;
44832;SDS011;30569;51.252;9.830;2024-01-30T04:27:35;12.97;;;5.50;;
44832;SDS011;30569;51.252;9.830;2024-01-30T04:30:00;11.07;;;5.40;;
44832;SDS011;30569;51.252;9.830;2024-01-30T04:32:26;8.60;;;5.13;;
44832;SDS011;30569;51.252;9.830;2024-01-30T04:34:51;12.07;;;5.40;;
44832;SDS011;30569;51.252;9.830;2024-01-30T04:37:17;9.07;;;5.00;;
44832;SDS011;30569;51.252;9.830;2024-01-30T04:39:43;9.43;;;5.30;;
44832;SDS011;30569;51.252;9.830;2024-01-30T04:42:08;8.57;;;4.90;;
44832;SDS011;30569;51.252;9.830;2024-01-30T04:44:34;7.70;;;5.00;;
44832;SDS011;30569;51.252;9.830;2024-01-30T04:46:59;10.67;;;5.20;;
44832;SDS011;30569;51.252;9.830;2024-01-30T04:49:26;8.83;;;4.90;;
44832;SDS011;30569;51.252;9.830;2024-01-30T04:51:52;10.20;;;4.53;;
44832;SDS011;30569;51.252;9.830;2024-01-30T04:54:18;9.20;;;5.13;;
44832;SDS011;30569;51.252;9.830;2024-01-30T04:56:43;9.57;;;5.10;;
44832;SDS011;30569;51.252;9.830;2024-01-30T04:59:09;9.23;;;5.13;;
44832;SDS011;30569;51.252;9.830;2024-01-30T05:01:34;13.27;;;6.27;;
44832;SDS011;30569;51.252;9.830;2024-01-30T05:04:00;9.40;;;5.33;;
44832;SDS011;30569;51.252;9.830;2024-01-30T05:06:27;12.33;;;5.80;;
44832;SDS011;30569;51.252;9.830;2024-01-30T05:08:53;12.93;;;5.77;;
44832;SDS011;30569;51.252;9.830;2024-01-30T05:11:18;11.07;;;5.27;;
44832;SDS011;30569;51.252;9.830;2024-01-30T05:13:44;9.00;;;5.53;;
44832;SDS011;30569;51.252;9.830;2024-01-30T05:16:13;11.93;;;5.47;;
44832;SDS011;30569;51.252;9.830;2024-01-30T05:18:39;9.30;;;5.57;;
44832;SDS011;30569;51.252;9.830;2024-01-30T05:21:05;11.17;;;5.90;;
44832;SDS011;30569;51.252;9.830;2024-01-30T05:23:31;10.60;;;5.70;;
44832;SDS011;30569;51.252;9.830;2024-01-30T05:25:56;11.77;;;5.77;;
44832;SDS011;30569;51.252;9.830;2024-01-30T05:28:22;10.93;;;5.83;;
44832;SDS011;30569;51.252;9.830;2024-01-30T05:30:48;12.13;;;5.87;;
44832;SDS011;30569;51.252;9.830;2024-01-30T05:33:13;10.60;;;5.70;;
44832;SDS011;30569;51.252;9.830;2024-01-30T05:35:39;9.37;;;5.53;;
44832;SDS011;30569;51.252;9.830;2024-01-30T05:38:05;10.43;;;6.00;;
44832;SDS011;30569;51.252;9.830;2024-01-30T05:40:30;9.27;;;5.30;;
44832;SDS011;30569;51.252;9.830;2024-01-30T05:42:56;10.87;;;6.43;;
44832;SDS011;30569;51.252;9.830;2024-01-30T05:45:26;10.87;;;5.37;;
44832;SDS011;30569;51.252;9.830;2024-01-30T05:47:52;8.80;;;5.07;;
44832;SDS011;30569;51.252;9.830;2024-01-30T05:50:18;11.17;;;5.17;;
44832;SDS011;30569;51.252;9.830;2024-01-30T05:52:44;9.90;;;4.93;;
44832;SDS011;30569;51.252;9.830;2024-01-30T05:55:09;13.60;;;5.57;;
44832;SDS011;30569;51.252;9.830;2024-01-30T05:57:36;7.70;;;4.73;;
44832;SDS011;30569;51.252;9.830;2024-01-30T06:00:02;11.17;;;5.10;;
44832;SDS011;30569;51.252;9.830;2024-01-30T06:02:29;10.30;;;5.20;;
44832;SDS011;30569;51.252;9.830;2024-01-30T06:04:55;13.53;;;5.23;;
44832;SDS011;30569;51.252;9.830;2024-01-30T06:07:20;8.97;;;5.17;;
44832;SDS011;30569;51.252;9.830;2024-01-30T06:09:47;11.27;;;5.87;;
44832;SDS011;30569;51.252;9.830;2024-01-30T06:12:12;10.23;;;5.20;;
44832;SDS011;30569;51.252;9.830;2024-01-30T06:14:38;9.43;;;5.57;;
44832;SDS011;30569;51.252;9.830;2024-01-30T06:17:04;8.87;;;4.97;;
44832;SDS011;30569;51.252;9.830;2024-01-30T06:19:30;10.30;;;4.97;;
44832;SDS011;30569;51.252;9.830;2024-01-30T06:21:58;15.10;;;6.00;;
44832;SDS011;30569;51.252;9.830;2024-01-30T06:24:24;9.97;;;5.17;;
44832;SDS011;30569;51.252;9.830;2024-01-30T06:26:50;8.23;;;4.83;;
44832;SDS011;30569;51.252;9.830;2024-01-30T06:29:15;10.20;;;5.50;;
44832;SDS011;30569;51.252;9.830;2024-01-30T06:31:41;12.17;;;5.40;;
44832;SDS011;30569;51.252;9.830;2024-01-30T06:34:08;11.10;;;4.70;;
44832;SDS011;30569;51.252;9.830;2024-01-30T06:36:34;9.00;;;4.90;;
44832;SDS011;30569;51.252;9.830;2024-01-30T06:39:01;11.80;;;5.57;;
44832;SDS011;30569;51.252;9.830;2024-01-30T06:41:27;12.00;;;5.17;;
44832;SDS011;30569;51.252;9.830;2024-01-30T06:43:53;9.70;;;4.90;;
44832;SDS011;30569;51.252;9.830;2024-01-30T06:46:19;10.53;;;4.97;;
44832;SDS011;30569;51.252;9.830;2024-01-30T06:48:44;9.10;;;5.13;;
44832;SDS011;30569;51.252;9.830;2024-01-30T06:51:10;10.27;;;5.20;;
44832;SDS011;30569;51.252;9.830;2024-01-30T06:53:37;8.73;;;5.00;;
44832;SDS011;30569;51.252;9.830;2024-01-30T06:56:02;11.87;;;5.17;;
44832;SDS011;30569;51.252;9.830;2024-01-30T06:58:28;8.80;;;4.50;;
44832;SDS011;30569;51.252;9.830;2024-01-30T07:00:54;7.73;;;4.90;;
44832;SDS011;30569;51.252;9.830;2024-01-30T07:03:20;11.17;;;5.17;;
44832;SDS011;30569;51.252;9.830;2024-01-30T07:05:46;9.23;;;4.53;;
44832;SDS011;30569;51.252;9.830;2024-01-30T07:08:12;10.23;;;5.60;;
44832;SDS011;30569;51.252;9.830;2024-01-30T07:10:38;9.30;;;4.90;;
44832;SDS011;30569;51.252;9.830;2024-01-30T07:13:03;11.00;;;5.17;;
44832;SDS011;30569;51.252;9.830;2024-01-30T07:15:30;10.17;;;5.20;;
44832;SDS011;30569;51.252;9.830;2024-01-30T07:17:56;10.40;;;5.67;;
44832;SDS011;30569;51.252;9.830;2024-01-30T07:20:22;11.20;;;5.70;;
44832;SDS011;30569;51.252;9.830;2024-01-30T07:22:47;10.73;;;5.80;;
44832;SDS011;30569;51.252;9.830;2024-01-30T07:25:13;8.23;;;4.73;;
44832;SDS011;30569;51.252;9.830;2024-01-30T07:27:39;10.83;;;6.03;;
44832;SDS011;30569;51.252;9.830;2024-01-30T07:30:05;10.23;;;5.47;;
44832;SDS011;30569;51.252;9.830;2024-01-30T07:32:31;13.17;;;6.10;;
44832;SDS011;30569;51.252;9.830;2024-01-30T07:34:57;9.50;;;5.60;;
44832;SDS011;30569;51.252;9.830;2024-01-30T07:37:22;12.57;;;5.73;;
44832;SDS011;30569;51.252;9.830;2024-01-30T07:39:48;10.90;;;5.63;;
44832;SDS011;30569;51.252;9.830;2024-01-30T07:42:13;12.23;;;6.17;;
44832;SDS011;30569;51.252;9.830;2024-01-30T07:44:39;12.20;;;5.93;;
44832;SDS011;30569;51.252;9.830;2024-01-30T07:47:05;11.33;;;5.37;;
44832;SDS011;30569;51.252;9.830;2024-01-30T07:49:30;10.30;;;5.53;;
44832;SDS011;30569;51.252;9.830;2024-01-30T07:51:56;9.90;;;5.43;;
44832;SDS011;30569;51.252;9.830;2024-01-30T07:54:22;9.70;;;5.53;;
44832;SDS011;30569;51.252;9.830;2024-01-30T07:56:48;10.13;;;5.50;;
44832;SDS011;30569;51.252;9.830;2024-01-30T07:59:14;8.33;;;5.30;;
44832;SDS011;30569;51.252;9.830;2024-01-30T08:01:40;10.80;;;5.80;;
44832;SDS011;30569;51.252;9.830;2024-01-30T08:04:05;8.10;;;4.80;;
44832;SDS011;30569;51.252;9.830;2024-01-30T08:06:31;11.27;;;5.50;;
44832;SDS011;30569;51.252;9.830;2024-01-30T08:08:57;10.93;;;5.33;;
44832;SDS011;30569;51.252;9.830;2024-01-30T08:11:24;9.57;;;5.07;;
44832;SDS011;30569;51.252;9.830;2024-01-30T08:13:52;11.70;;;5.23;;
44832;SDS011;30569;51.252;9.830;2024-01-30T08:16:18;11.33;;;5.60;;
44832;SDS011;30569;51.252;9.830;2024-01-30T08:18:43;9.93;;;5.73;;
44832;SDS011;30569;51.252;9.830;2024-01-30T08:21:09;9.93;;;6.03;;
44832;SDS011;30569;51.252;9.830;2024-01-30T08:23:35;10.60;;;5.80;;
44832;SDS011;30569;51.252;9.830;2024-01-30T08:26:00;12.77;;;5.70;;
44832;SDS011;30569;51.252;9.830;2024-01-30T08:28:26;10.85;;;5.82;;
44832;SDS011;30569;51.252;9.830;2024-01-30T08:30:52;9.38;;;5.57;;
44832;SDS011;30569;51.252;9.830;2024-01-30T08:33:17;13.03;;;6.50;;
44832;SDS011;30569;51.252;9.830;2024-01-30T08:35:43;11.55;;;6.53;;
44832;SDS011;30569;51.252;9.830;2024-01-30T08:38:09;17.60;;;10.02;;
44832;SDS011;30569;51.252;9.830;2024-01-30T08:40:37;15.27;;;8.60;;
44832;SDS011;30569;51.252;9.830;2024-01-30T08:43:02;10.88;;;6.35;;
44832;SDS011;30569;51.252;9.830;2024-01-30T08:45:29;11.98;;;6.70;;
44832;SDS011;30569;51.252;9.830;2024-01-30T08:47:55;18.60;;;9.95;;
44832;SDS011;30569;51.252;9.830;2024-01-30T08:50:21;17.30;;;9.70;;
44832;SDS011;30569;51.252;9.830;2024-01-30T08:52:46;43.05;;;19.70;;
44832;SDS011;30569;51.252;9.830;2024-01-30T08:55:12;18.40;;;8.68;;
44832;SDS011;30569;51.252;9.830;2024-01-30T08:57:38;24.45;;;11.07;;
44832;SDS011;30569;51.252;9.830;2024-01-30T09:00:04;25.75;;;11.43;;
44832;SDS011;30569;51.252;9.830;2024-01-30T09:02:31;21.60;;;11.48;;
44832;SDS011;30569;51.252;9.830;2024-01-30T09:04:57;19.42;;;9.88;;
44832;SDS011;30569;51.252;9.830;2024-01-30T09:07:23;11.95;;;6.60;;
44832;SDS011;30569;51.252;9.830;2024-01-30T09:09:49;26.50;;;10.98;;
44832;SDS011;30569;51.252;9.830;2024-01-30T09:12:14;15.82;;;8.27;;
44832;SDS011;30569;51.252;9.830;2024-01-30T09:14:40;20.25;;;9.63;;
44832;SDS011;30569;51.252;9.830;2024-01-30T09:17:06;13.85;;;6.65;;
44832;SDS011;30569;51.252;9.830;2024-01-30T09:19:32;12.70;;;6.00;;
44832;SDS011;30569;51.252;9.830;2024-01-30T09:21:57;17.00;;;7.85;;
44832;SDS011;30569;51.252;9.830;2024-01-30T09:24:23;13.45;;;6.55;;
44832;SDS011;30569;51.252;9.830;2024-01-30T09:26:50;17.08;;;8.05;;
44832;SDS011;30569;51.252;9.830;2024-01-30T09:29:15;19.65;;;9.90;;
44832;SDS011;30569;51.252;9.830;2024-01-30T09:31:45;10.63;;;6.13;;
44832;SDS011;30569;51.252;9.830;2024-01-30T09:34:11;12.27;;;6.82;;
44832;SDS011;30569;51.252;9.830;2024-01-30T09:36:37;12.77;;;6.20;;
44832;SDS011;30569;51.252;9.830;2024-01-30T09:39:02;10.63;;;5.80;;
44832;SDS011;30569;51.252;9.830;2024-01-30T09:41:29;12.35;;;6.60;;
44832;SDS011;30569;51.252;9.830;2024-01-30T09:43:58;12.60;;;6.05;;
44832;SDS011;30569;51.252;9.830;2024-01-30T09:46:26;9.88;;;5.70;;
44832;SDS011;30569;51.252;9.830;2024-01-30T09:48:53;11.98;;;6.13;;
44832;SDS011;30569;51.252;9.830;2024-01-30T09:51:20;11.68;;;6.43;;
44832;SDS011;30569;51.252;9.830;2024-01-30T09:53:47;12.02;;;6.75;;
44832;SDS011;30569;51.252;9.830;2024-01-30T09:56:14;15.13;;;6.78;;
44832;SDS011;30569;51.252;9.830;2024-01-30T09:58:39;13.10;;;6.70;;
44832;SDS011;30569;51.252;9.830;2024-01-30T10:01:05;12.38;;;6.78;;
44832;SDS011;30569;51.252;9.830;2024-01-30T10:03:31;10.07;;;5.45;;
44832;SDS011;30569;51.252;9.830;2024-01-30T10:05:56;11.05;;;5.80;;
44832;SDS011;30569;51.252;9.830;2024-01-30T10:08:23;10.68;;;5.85;;
44832;SDS011;30569;51.252;9.830;2024-01-30T10:10:49;11.77;;;6.25;;
44832;SDS011;30569;51.252;9.830;2024-01-30T10:13:15;14.38;;;6.50;;
44832;SDS011;30569;51.252;9.830;2024-01-30T10:15:41;11.60;;;6.00;;
44832;SDS011;30569;51.252;9.830;2024-01-30T10:18:07;11.60;;;6.13;;
44832;SDS011;30569;51.252;9.830;2024-01-30T10:20:35;11.30;;;5.68;;
44832;SDS011;30569;51.252;9.830;2024-01-30T10:23:01;10.05;;;5.75;;
44832;SDS011;30569;51.252;9.830;2024-01-30T10:25:26;11.15;;;6.30;;
44832;SDS011;30569;51.252;9.830;2024-01-30T10:27:52;37.00;;;15.68;;
44832;SDS011;30569;51.252;9.830;2024-01-30T10:30:22;13.55;;;6.15;;
44832;SDS011;30569;51.252;9.830;2024-01-30T10:32:48;9.13;;;5.03;;
44832;SDS011;30569;51.252;9.830;2024-01-30T10:35:14;10.63;;;5.75;;
44832;SDS011;30569;51.252;9.830;2024-01-30T10:37:41;9.02;;;5.25;;
44832;SDS011;30569;51.252;9.830;2024-01-30T10:40:08;11.32;;;5.60;;
44832;SDS011;30569;51.252;9.830;2024-01-30T10:42:37;8.27;;;5.15;;
44832;SDS011;30569;51.252;9.830;2024-01-30T10:45:14;10.95;;;5.55;;
44832;SDS011;30569;51.252;9.830;2024-01-30T10:47:44;10.50;;;5.13;;
44832;SDS011;30569;51.252;9.830;2024-01-30T10:50:16;11.63;;;5.72;;
44832;SDS011;30569;51.252;9.830;2024-01-30T10:52:42;9.43;;;5.15;;
44832;SDS011;30569;51.252;9.830;2024-01-30T10:55:08;10.52;;;5.75;;
44832;SDS011;30569;51.252;9.830;2024-01-30T10:57:35;10.63;;;4.97;;
44832;SDS011;30569;51.252;9.830;2024-01-30T11:00:02;9.48;;;6.00;;
44832;SDS011;30569;51.252;9.830;2024-01-30T11:02:31;9.27;;;5.25;;
44832;SDS011;30569;51.252;9.830;2024-01-30T11:04:57;10.38;;;5.45;;
44832;SDS011;30569;51.252;9.830;2024-01-30T11:07:28;9.00;;;5.10;;
44832;SDS011;30569;51.252;9.830;2024-01-30T11:12:24;9.27;;;5.07;;
44832;SDS011;30569;51.252;9.830;2024-01-30T11:15:11;9.88;;;4.97;;
44832;SDS011;30569;51.252;9.830;2024-01-30T11:20:29;14.30;;;6.25;;
44832;SDS011;30569;51.252;9.830;2024-01-30T11:22:56;15.35;;;6.25;;
44832;SDS011;30569;51.252;9.830;2024-01-30T11:25:23;24.58;;;7.88;;
44832;SDS011;30569;51.252;9.830;2024-01-30T11:27:50;12.77;;;5.72;;
44832;SDS011;30569;51.252;9.830;2024-01-30T11:30:23;12.02;;;5.28;;
44832;SDS011;30569;51.252;9.830;2024-01-30T11:35:33;10.98;;;6.93;;
44832;SDS011;30569;51.252;9.830;2024-01-30T11:38:00;9.98;;;5.25;;
44832;SDS011;30569;51.252;9.830;2024-01-30T11:40:27;8.27;;;4.50;;
44832;SDS011;30569;51.252;9.830;2024-01-30T11:42:54;11.50;;;4.80;;
44832;SDS011;30569;51.252;9.830;2024-01-30T11:45:24;8.30;;;4.57;;
44832;SDS011;30569;51.252;9.830;2024-01-30T11:47:49;11.38;;;5.38;;
44832;SDS011;30569;51.252;9.830;2024-01-30T11:50:15;9.93;;;4.85;;
44832;SDS011;30569;51.252;9.830;2024-01-30T11:52:41;10.55;;;5.40;;
44832;SDS011;30569;51.252;9.830;2024-01-30T11:55:08;12.23;;;6.22;;
44832;SDS011;30569;51.252;9.830;2024-01-30T11:57:35;13.27;;;6.30;;
44832;SDS011;30569;51.252;9.830;2024-01-30T12:00:02;9.10;;;5.13;;
44832;SDS011;30569;51.252;9.830;2024-01-30T12:02:39;9.40;;;5.40;;
44832;SDS011;30569;51.252;9.830;2024-01-30T12:05:05;9.80;;;5.57;;
44832;SDS011;30569;51.252;9.830;2024-01-30T12:07:32;10.18;;;5.40;;
44832;SDS011;30569;51.252;9.830;2024-01-30T12:09:57;8.77;;;5.20;;
44832;SDS011;30569;51.252;9.830;2024-01-30T12:12:27;15.02;;;6.18;;
44832;SDS011;30569;51.252;9.830;2024-01-30T12:14:53;14.18;;;5.53;;
44832;SDS011;30569;51.252;9.830;2024-01-30T12:17:30;9.85;;;5.45;;
44832;SDS011;30569;51.252;9.830;2024-01-30T12:20:06;8.93;;;5.00;;
44832;SDS011;30569;51.252;9.830;2024-01-30T12:22:46;10.63;;;4.72;;
44832;SDS011;30569;51.252;9.830;2024-01-30T12:25:13;11.63;;;4.88;;
44832;SDS011;30569;51.252;9.830;2024-01-30T12:27:44;10.27;;;5.05;;
44832;SDS011;30569;51.252;9.830;2024-01-30T12:30:11;10.88;;;5.40;;
44832;SDS011;30569;51.252;9.830;2024-01-30T12:32:41;8.20;;;5.22;;
44832;SDS011;30569;51.252;9.830;2024-01-30T12:35:09;9.00;;;5.35;;
44832;SDS011;30569;51.252;9.830;2024-01-30T12:37:35;10.98;;;5.15;;
44832;SDS011;30569;51.252;9.830;2024-01-30T12:40:01;12.88;;;5.20;;
44832;SDS011;30569;51.252;9.830;2024-01-30T12:42:27;8.10;;;4.95;;
44832;SDS011;30569;51.252;9.830;2024-01-30T12:44:53;11.82;;;5.00;;
44832;SDS011;30569;51.252;9.830;2024-01-30T12:47:21;9.43;;;5.20;;
44832;SDS011;30569;51.252;9.830;2024-01-30T12:49:46;10.95;;;5.72;;
44832;SDS011;30569;51.252;9.830;2024-01-30T12:52:13;11.15;;;6.18;;
44832;SDS011;30569;51.252;9.830;2024-01-30T12:54:42;8.50;;;5.00;;
44832;SDS011;30569;51.252;9.830;2024-01-30T12:57:07;9.43;;;5.40;;
44832;SDS011;30569;51.252;9.830;2024-01-30T12:59:33;8.10;;;4.43;;
44832;SDS011;30569;51.252;9.830;2024-01-30T13:02:00;9.43;;;5.35;;
44832;SDS011;30569;51.252;9.830;2024-01-30T13:04:27;10.40;;;5.10;;
44832;SDS011;30569;51.252;9.830;2024-01-30T13:06:53;10.00;;;5.20;;
44832;SDS011;30569;51.252;9.830;2024-01-30T13:09:19;8.93;;;5.38;;
44832;SDS011;30569;51.252;9.830;2024-01-30T13:11:45;11.73;;;4.93;;
44832;SDS011;30569;51.252;9.830;2024-01-30T13:14:11;7.78;;;4.78;;
44832;SDS011;30569;51.252;9.830;2024-01-30T13:16:36;10.93;;;4.82;;
44832;SDS011;30569;51.252;9.830;2024-01-30T13:19:02;10.93;;;5.22;;
44832;SDS011;30569;51.252;9.830;2024-01-30T13:21:28;8.60;;;4.82;;
44832;SDS011;30569;51.252;9.830;2024-01-30T13:23:54;13.10;;;4.88;;
44832;SDS011;30569;51.252;9.830;2024-01-30T13:26:22;10.15;;;4.85;;
44832;SDS011;30569;51.252;9.830;2024-01-30T13:28:48;8.10;;;4.63;;
44832;SDS011;30569;51.252;9.830;2024-01-30T13:31:14;11.98;;;4.97;;
44832;SDS011;30569;51.252;9.830;2024-01-30T13:33:40;11.05;;;4.68;;
44832;SDS011;30569;51.252;9.830;2024-01-30T13:36:06;9.45;;;5.35;;
44832;SDS011;30569;51.252;9.830;2024-01-30T13:38:32;11.38;;;4.97;;
44832;SDS011;30569;51.252;9.830;2024-01-30T13:40:58;12.15;;;4.95;;
44832;SDS011;30569;51.252;9.830;2024-01-30T13:43:24;11.32;;;4.40;;
44832;SDS011;30569;51.252;9.830;2024-01-30T13:45:50;11.30;;;4.70;;
44832;SDS011;30569;51.252;9.830;2024-01-30T13:48:16;8.98;;;4.43;;
44832;SDS011;30569;51.252;9.830;2024-01-30T13:50:42;9.35;;;4.57;;
44832;SDS011;30569;51.252;9.830;2024-01-30T13:53:07;8.05;;;4.82;;
44832;SDS011;30569;51.252;9.830;2024-01-30T13:55:33;9.88;;;4.88;;
44832;SDS011;30569;51.252;9.830;2024-01-30T13:57:59;8.85;;;4.60;;
44832;SDS011;30569;51.252;9.830;2024-01-30T14:00:26;9.40;;;4.57;;
44832;SDS011;30569;51.252;9.830;2024-01-30T14:02:52;7.32;;;4.03;;
44832;SDS011;30569;51.252;9.830;2024-01-30T14:05:20;8.00;;;4.35;;
44832;SDS011;30569;51.252;9.830;2024-01-30T14:07:46;8.90;;;4.95;;
44832;SDS011;30569;51.252;9.830;2024-01-30T14:10:12;7.75;;;4.20;;
44832;SDS011;30569;51.252;9.830;2024-01-30T14:12:38;11.05;;;4.70;;
44832;SDS011;30569;51.252;9.830;2024-01-30T14:15:04;10.35;;;4.13;;
44832;SDS011;30569;51.252;9.830;2024-01-30T14:17:30;13.85;;;4.82;;
44832;SDS011;30569;51.252;9.830;2024-01-30T14:19:55;8.25;;;4.80;;
44832;SDS011;30569;51.252;9.830;2024-01-30T14:22:21;13.40;;;5.18;;
44832;SDS011;30569;51.252;9.830;2024-01-30T14:24:47;10.32;;;5.05;;
44832;SDS011;30569;51.252;9.830;2024-01-30T14:27:12;9.27;;;4.72;;
44832;SDS011;30569;51.252;9.830;2024-01-30T14:29:38;10.93;;;5.53;;
44832;SDS011;30569;51.252;9.830;2024-01-30T14:32:04;9.95;;;5.45;;
44832;SDS011;30569;51.252;9.830;2024-01-30T14:34:30;8.90;;;4.93;;
44832;SDS011;30569;51.252;9.830;2024-01-30T14:36:55;9.50;;;5.22;;
44832;SDS011;30569;51.252;9.830;2024-01-30T14:39:22;13.10;;;5.13;;
44832;SDS011;30569;51.252;9.830;2024-01-30T14:41:48;8.52;;;4.65;;